ADDS TAF Board (Experimental) INFO Settings

IDs: Format: Expanded Condensed

KFLL - Ft Lauderdale-Hollyw, FL, US

Issued at 0913 UTC 29 Mar 2015
Updated at: 1036 UTC 29 Mar 2015
Time0953Z 29/11Z 29/12Z 29/13Z 29/14Z 29/15Z 29/16Z 29/17Z 29/18Z 29/19Z 29/20Z 29/21Z 29/22Z 29/23Z
Type OBS PRVL PRVL PRVL PRVL PRVL PRVL PRVL PRVL PRVL PRVL PRVL PRVL PRVL
VIS 10 >6 >6 >6 >6 >6 >6 >6 >6 >6 >6 >6 >6 >6
CIG 250 250 250 250 250 -- -- -- -- -- -- -- -- --
Cover BKN BKN BKN BKN BKN SKC SKC SKC SKC SKC SKC SKC SKC SKC
FltCat VFR VFR VFR VFR VFR VFR VFR VFR VFR VFR VFR VFR VFR VFR
WX -- -- -- -- -- -- -- -- -- -- -- -- -- --
WDir 340 340 340 340 340 20 20 20 20 20 20 20 20 20
WSpd 9 5 5 5 5 11 11 11 11 11 11 11 11 11
WGst -- -- -- -- -- 18 18 18 18 18 18 18 18 18
R10/28
XWnd 8 5 5 5 5 10 10 10 10 10 10 10 10 10
XGst -- -- -- -- -- 17 17 17 17 17 17 17 17 17
HWnd -3 -2 -2 -2 -2 4 4 4 4 4 4 4 4 4
HGst -- -- -- -- -- 6 6 6 6 6 6 6 6 6

NOTE: TEMPO conditions in [brackets]. Keep in mind TEMPO conditions might be better (lower impact) than prevailing conditions.

Raw TAF
KFLL 290913Z 2909/3006 34005KT P6SM BKN250
  FM291500 02011G18KT P6SM SKC
  FM300000 04008KT P6SM FEW250


Raw METAR
KFLL 290953Z 34009KT 10SM BKN250 14/07 A3020 RMK AO2 SLP226 T01390072
KFLL 290853Z 34005KT 10SM BKN250 14/09 A3019 RMK AO2 SLP222 T01440094 56007
KFLL 290753Z 34004KT 10SM BKN250 15/08 A3019 RMK AO2 SLP224 T01500083

METAR Board
Radar Display
Forecast Discussion

TAF Board Legend

Potential Impact
Threat None Slight Moderate High
Visibility (sm) ≥5.1 5.1>X≥3 3>X≥1 <1
Ceiling (100 ft) ≥30.1 30.1>X≥10 10>X≥5 <5
Wind Speed (kt) <10 10≤X<20 20≤X<30 ≥30
Wind Gust (kt) <15 15≤X<25 25≤X<35 ≥35
Weather No Wx Reported VCTS,-TS,-FZRA,SN TS,FZRA +TS,+FZRA,+SN